Time;durP1;ratioP1;P1;durP2;ratioP2;P2;SDS_P1;SDS_P2;PMS_P1;PMS_P2;Temp;Humidity;BMP_temperature;BMP_pressure;BME280_temperature;BME280_humidity;BME280_pressure;Samples;Min_cycle;Max_cycle;Signal;HPM_P1;HPM_P2
2022/09/14 00:01:50;;;;;;;21.10;13.90;;;;;;;13.93;98.28;99551.92;3548704;81;99123;-86
2022/09/14 00:06:51;;;;;;;19.20;13.50;;;;;;;13.89;98.28;99532.45;3551936;81;99053;-87
2022/09/14 00:11:52;;;;;;;17.40;11.83;;;;;;;13.84;98.23;99533.69;3544687;80;99232;-87
2022/09/14 00:16:53;;;;;;;17.20;12.82;;;;;;;13.81;98.75;99531.78;3551706;81;99210;-87
2022/09/14 00:21:57;;;;;;;19.15;13.22;;;;;;;13.81;98.87;99533.75;3551560;80;99069;-87
2022/09/14 00:26:58;;;;;;;23.85;17.07;;;;;;;13.77;98.93;99533.02;3550920;80;99157;-87
2022/09/14 00:31:59;;;;;;;18.27;13.08;;;;;;;13.75;99.45;99532.08;3551841;80;99137;-87
2022/09/14 00:37:00;;;;;;;19.15;13.20;;;;;;;13.73;99.26;99527.55;3551605;81;99184;-87
2022/09/14 00:42:01;;;;;;;18.37;12.73;;;;;;;13.72;99.56;99524.61;3551926;81;100227;-87
2022/09/14 00:47:02;;;;;;;19.47;12.90;;;;;;;13.72;99.69;99530.73;3550571;80;99404;-87
2022/09/14 00:52:25;;;;;;;19.43;12.07;;;;;;;13.71;99.84;99533.31;3484284;83;99191;-87
2022/09/14 00:57:30;;;;;;;22.82;15.78;;;;;;;13.72;99.80;99536.25;3568988;79;99208;-86
2022/09/14 01:02:32;;;;;;;20.37;14.53;;;;;;;13.68;100.00;99539.08;3575096;80;99189;-86
2022/09/14 01:08:00;;;;;;;18.85;13.88;;;;;;;13.65;100.00;99537.17;3572678;80;99435;-86
2022/09/14 01:13:28;;;;;;;26.23;18.90;;;;;;;13.65;100.00;99543.29;3574592;79;98994;-87
2022/09/14 01:18:37;;;;;;;22.95;15.72;;;;;;;13.65;100.00;99535.78;3576490;80;99186;-86
2022/09/14 01:23:56;;;;;;;27.25;18.32;;;;;;;13.67;100.00;99535.34;3577036;80;99142;-87
2022/09/14 01:29:14;;;;;;;22.02;15.25;;;;;;;13.68;100.00;99534.94;3566153;79;99261;-86
2022/09/14 01:34:21;;;;;;;27.10;17.87;;;;;;;13.71;100.00;99529.96;3575574;80;99327;-87
2022/09/14 01:39:22;;;;;;;;;;;;;;;13.74;100.00;99533.25;3575541;80;99153;-87
2022/09/14 01:44:28;;;;;;;26.10;15.53;;;;;;;13.75;100.00;99522.40;3540257;82;85283;-87
2022/09/14 01:49:35;;;;;;;;;;;;;;;13.81;100.00;99519.92;3579690;79;99274;-87
2022/09/14 01:55:11;;;;;;;24.47;17.00;;;;;;;13.86;100.00;99515.30;3543625;82;85527;-85
2022/09/14 02:00:16;;;;;;;28.87;17.25;;;;;;;13.90;100.00;99516.03;3508029;82;99208;-87
2022/09/14 02:05:28;;;;;;;27.23;16.93;;;;;;;13.96;100.00;99521.26;3510402;82;99298;-87
2022/09/14 02:10:29;;;;;;;24.20;17.02;;;;;;;13.99;100.00;99514.87;3515519;82;99173;-87
2022/09/14 02:15:30;;;;;;;21.97;13.93;;;;;;;14.01;100.00;99504.94;3522517;80;99112;-86
2022/09/14 02:20:45;;;;;;;22.03;14.20;;;;;;;14.03;100.00;99510.86;3459537;83;98966;-87
2022/09/14 02:25:47;;;;;;;20.97;13.60;;;;;;;14.05;100.00;99504.29;3510338;82;99394;-87
2022/09/14 02:31:05;;;;;;;21.97;13.87;;;;;;;14.07;100.00;99504.64;3456132;83;99361;-87
2022/09/14 02:36:36;;;;;;;17.80;12.40;;;;;;;14.06;100.00;99506.47;3512196;82;99286;-87
2022/09/14 02:41:48;;;;;;;17.92;10.43;;;;;;;14.04;100.00;99497.78;3510177;82;108100;-86
2022/09/14 02:47:06;;;;;;;17.90;11.10;;;;;;;14.01;100.00;99487.58;3499807;82;103732;-86
2022/09/14 02:52:15;;;;;;;14.40;10.23;;;;;;;13.99;100.00;99486.61;3507443;82;99594;-87
2022/09/14 02:57:16;;;;;;;15.98;9.65;;;;;;;13.99;100.00;99471.98;3527931;81;99202;-87
2022/09/14 03:02:17;;;;;;;14.50;8.85;;;;;;;13.97;100.00;99479.35;3551315;81;98958;-86
2022/09/14 03:07:17;;;;;;;15.70;9.17;;;;;;;13.94;100.00;99484.92;3556306;81;99001;-86
2022/09/14 03:12:18;;;;;;;14.97;8.77;;;;;;;13.88;100.00;99496.28;3578584;80;99052;-87
2022/09/14 03:17:19;;;;;;;15.17;8.63;;;;;;;13.81;100.00;99485.35;3576755;80;98874;-86
2022/09/14 03:22:20;;;;;;;12.00;7.12;;;;;;;13.77;100.00;99477.71;3549487;81;99092;-86
2022/09/14 03:27:21;;;;;;;13.63;8.07;;;;;;;13.71;100.00;99478.80;3576668;80;99066;-86
2022/09/14 03:32:22;;;;;;;14.55;8.20;;;;;;;13.62;100.00;99479.94;3562045;81;99107;-86
2022/09/14 03:37:24;;;;;;;11.40;7.55;;;;;;;13.52;100.00;99487.03;3576551;80;98883;-86
2022/09/14 03:42:24;;;;;;;10.93;7.22;;;;;;;13.44;100.00;99481.41;3552754;81;99319;-87
2022/09/14 03:47:26;;;;;;;13.73;7.53;;;;;;;13.34;100.00;99483.15;3575008;80;99199;-86
2022/09/14 03:52:27;;;;;;;12.05;7.17;;;;;;;13.33;100.00;99479.41;3576141;81;99147;-86
2022/09/14 03:57:28;;;;;;;11.23;6.83;;;;;;;13.33;100.00;99475.27;3575692;80;98946;-86
2022/09/14 04:02:29;;;;;;;11.00;6.53;;;;;;;13.29;100.00;99478.67;3575268;81;99087;-86
2022/09/14 04:07:30;;;;;;;11.00;6.90;;;;;;;13.26;100.00;99476.17;3569113;80;99135;-87
2022/09/14 04:12:36;;;;;;;10.90;6.45;;;;;;;13.29;100.00;99484.20;3550416;81;98996;-87
2022/09/14 04:17:39;;;;;;;10.70;6.30;;;;;;;13.27;100.00;99483.27;3576454;79;99000;-86
2022/09/14 04:22:40;;;;;;;9.33;5.70;;;;;;;13.21;100.00;99481.38;3575235;80;99123;-86
2022/09/14 04:27:41;;;;;;;9.25;5.75;;;;;;;13.18;100.00;99478.05;3577007;79;98989;-86
2022/09/14 04:32:43;;;;;;;11.03;5.60;;;;;;;13.16;100.00;99474.35;3575234;80;98827;-86
2022/09/14 04:37:44;;;;;;;11.20;5.80;;;;;;;13.15;100.00;99475.55;3578519;79;100566;-86
2022/09/14 04:42:45;;;;;;;10.03;5.50;;;;;;;13.15;100.00;99481.08;3559929;80;99209;-86
2022/09/14 04:47:46;;;;;;;11.57;5.28;;;;;;;13.14;100.00;99486.40;3577821;79;99171;-87
2022/09/14 04:52:47;;;;;;;9.30;5.40;;;;;;;13.06;100.00;99488.30;3555650;81;98946;-87
2022/09/14 04:57:48;;;;;;;10.87;5.07;;;;;;;13.02;100.00;99490.34;3578864;80;98983;-86
2022/09/14 05:02:49;;;;;;;8.93;4.23;;;;;;;12.95;100.00;99499.47;3517640;82;99172;-87
2022/09/14 05:07:50;;;;;;;11.27;4.90;;;;;;;12.89;100.00;99498.95;3514418;82;98937;-87
2022/09/14 05:12:50;;;;;;;9.97;4.87;;;;;;;12.90;100.00;99492.23;3511283;81;98905;-87
2022/09/14 05:17:51;;;;;;;7.75;3.87;;;;;;;12.88;100.00;99505.68;3530179;80;99312;-87
2022/09/14 05:22:52;;;;;;;9.38;4.30;;;;;;;12.86;100.00;99504.70;3520866;82;98940;-87
2022/09/14 05:27:53;;;;;;;11.57;4.70;;;;;;;12.92;100.00;99502.28;3524810;81;98900;-85
2022/09/14 05:32:54;;;;;;;8.93;4.40;;;;;;;12.89;100.00;99503.89;3535573;80;99142;-88
2022/09/14 05:37:55;;;;;;;9.13;4.33;;;;;;;12.91;100.00;99497.34;3512617;81;99014;-88
2022/09/14 05:42:57;;;;;;;8.00;4.00;;;;;;;12.93;100.00;99496.33;3517593;82;98956;-87
2022/09/14 05:48:04;;;;;;;8.43;3.67;;;;;;;12.96;100.00;99506.58;3507091;82;98795;-87
2022/09/14 05:53:05;;;;;;;8.60;3.50;;;;;;;13.00;100.00;99505.95;3517443;82;98838;-86
2022/09/14 05:58:06;;;;;;;6.87;3.17;;;;;;;13.06;100.00;99499.34;3520976;82;98949;-87
2022/09/14 06:03:06;;;;;;;6.67;3.35;;;;;;;13.17;100.00;99495.84;3543488;80;98983;-87
2022/09/14 06:08:07;;;;;;;8.00;3.77;;;;;;;13.21;100.00;99493.81;3540195;81;98815;-87
2022/09/14 06:13:08;;;;;;;10.30;3.53;;;;;;;13.29;100.00;99496.05;3526062;80;99603;-90
2022/09/14 06:18:09;;;;;;;10.13;3.97;;;;;;;13.36;100.00;99503.46;3514821;82;99103;-91
2022/09/14 06:23:10;;;;;;;7.50;3.05;;;;;;;13.37;100.00;99509.17;3559218;80;99197;-89
2022/09/14 06:28:11;;;;;;;7.80;3.00;;;;;;;13.41;100.00;99501.00;3518220;81;99249;-89
2022/09/14 06:33:12;;;;;;;13.53;3.17;;;;;;;13.49;100.00;99501.09;3555599;79;98802;-89
2022/09/14 06:38:13;;;;;;;9.48;3.80;;;;;;;13.55;100.00;99498.03;3488221;82;99490;-88
2022/09/14 06:43:14;;;;;;;8.23;3.53;;;;;;;13.70;100.00;99512.40;3516638;82;98911;-88
2022/09/14 06:48:15;;;;;;;7.13;2.63;;;;;;;13.82;100.00;99513.19;3552693;79;99057;-87
2022/09/14 06:53:16;;;;;;;11.20;3.00;;;;;;;13.91;100.00;99512.05;3558946;80;98928;-88
2022/09/14 06:58:18;;;;;;;13.83;3.15;;;;;;;14.03;100.00;99507.30;3553502;81;99043;-87
2022/09/14 07:03:19;;;;;;;8.33;3.13;;;;;;;14.12;100.00;99510.31;3523136;79;98924;-87
2022/09/14 07:08:20;;;;;;;8.30;2.83;;;;;;;14.11;100.00;99517.81;3508696;80;98870;-88
2022/09/14 07:13:21;;;;;;;11.30;3.53;;;;;;;14.11;100.00;99517.81;3532720;80;98991;-89
2022/09/14 07:18:26;;;;;;;10.27;3.30;;;;;;;14.16;100.00;99503.50;3522967;82;99155;-87
2022/09/14 07:23:26;;;;;;;10.47;3.40;;;;;;;14.26;100.00;99512.23;3522457;81;98971;-91
2022/09/14 07:28:28;;;;;;;12.03;3.30;;;;;;;14.36;100.00;99510.47;3518729;81;99233;-90
2022/09/14 07:33:32;;;;;;;9.30;3.15;;;;;;;14.44;100.00;99505.00;3526449;82;100016;-89
2022/09/14 07:38:33;;;;;;;10.00;3.50;;;;;;;14.55;100.00;99509.10;3527438;79;99016;-89
2022/09/14 07:43:34;;;;;;;8.73;3.35;;;;;;;14.61;100.00;99516.33;3523827;80;98935;-88
2022/09/14 07:48:36;;;;;;;9.37;3.13;;;;;;;14.69;100.00;99512.20;3518726;80;99428;-88
2022/09/14 07:53:41;;;;;;;12.43;3.15;;;;;;;14.79;100.00;99512.00;3517881;81;98989;-88
2022/09/14 07:58:43;;;;;;;7.95;2.60;;;;;;;14.97;100.00;99511.61;3517436;82;99118;-88
2022/09/14 08:03:45;;;;;;;10.10;3.00;;;;;;;15.13;100.00;99506.11;3516594;82;98935;-88
2022/09/14 08:08:50;;;;;;;8.30;2.22;;;;;;;15.34;100.00;99515.38;3551479;79;99118;-88
2022/09/14 08:14:02;;;;;;;10.28;3.45;;;;;;;15.45;100.00;99508.98;3514125;82;99138;-90
2022/09/14 08:19:06;;;;;;;9.45;2.55;;;;;;;15.60;100.00;99515.77;3504824;82;99229;-87
2022/09/14 08:24:08;;;;;;;6.58;2.60;;;;;;;15.76;100.00;99513.00;3514724;82;98996;-86
2022/09/14 08:29:10;;;;;;;7.87;2.37;;;;;;;15.99;100.00;99506.66;3528343;81;98848;-85
2022/09/14 08:34:12;;;;;;;6.28;2.20;;;;;;;16.24;100.00;99504.63;3538782;80;98819;-87
2022/09/14 08:39:15;;;;;;;7.30;1.90;;;;;;;16.46;100.00;99500.09;3521766;81;99031;-87
2022/09/14 08:44:42;;;;;;;8.23;1.90;;;;;;;16.81;100.00;99492.14;3522626;80;98889;-87
2022/09/14 08:50:11;;;;;;;9.57;1.80;;;;;;;17.27;100.00;99491.56;3517376;82;115192;-88
2022/09/14 08:55:43;;;;;;;5.65;1.90;;;;;;;17.88;100.00;99491.98;3522241;81;99070;-88
2022/09/14 09:01:06;;;;;;;6.77;1.47;;;;;;;18.52;97.52;99489.98;3524145;80;98912;-87
2022/09/14 09:06:27;;;;;;;9.30;1.70;;;;;;;19.32;96.86;99481.36;3522292;80;98708;-88
2022/09/14 09:11:34;;;;;;;4.60;1.40;;;;;;;20.13;94.33;99480.84;3525234;81;98880;-90
2022/09/14 09:16:37;;;;;;;5.50;1.47;;;;;;;20.59;88.41;99499.95;3517466;82;98700;-89
2022/09/14 09:21:45;;;;;;;7.62;1.62;;;;;;;20.75;83.25;99497.44;3525287;82;98669;-91
2022/09/14 09:26:49;;;;;;;6.12;1.65;;;;;;;21.15;82.15;99499.44;3554722;80;98927;-85
2022/09/14 09:31:55;;;;;;;7.28;1.50;;;;;;;21.59;82.37;99492.13;3525391;80;98758;-86
2022/09/14 09:36:56;;;;;;;5.47;1.32;;;;;;;21.60;78.68;99485.27;3526169;82;98904;-84
2022/09/14 09:42:20;;;;;;;9.07;1.80;;;;;;;21.90;77.86;99494.02;3523356;82;98639;-85
2022/09/14 09:47:42;;;;;;;11.43;1.82;;;;;;;21.97;75.67;99486.02;3513327;81;98661;-84
2022/09/14 09:52:58;;;;;;;6.80;1.90;;;;;;;22.02;73.58;99486.01;3517762;82;98925;-93
2022/09/14 09:58:28;;;;;;;9.38;1.77;;;;;;;22.32;75.03;99484.84;3514944;82;99162;-84
2022/09/14 10:03:36;;;;;;;8.15;1.57;;;;;;;22.62;71.15;99492.12;3545075;81;98797;-85
2022/09/14 10:08:46;;;;;;;7.40;1.70;;;;;;;22.68;69.65;99490.95;3555737;80;98560;-87
2022/09/14 10:13:47;;;;;;;6.03;1.75;;;;;;;22.70;67.71;99501.69;3558466;80;98677;-88
2022/09/14 10:18:51;;;;;;;7.40;1.70;;;;;;;22.48;65.77;99493.63;3547383;79;98946;-87
2022/09/14 10:24:07;;;;;;;6.15;1.60;;;;;;;22.48;67.60;99482.42;3560747;79;98787;-86
2022/09/14 10:29:26;;;;;;;8.60;2.10;;;;;;;22.91;67.10;99476.09;3549432;80;98751;-90
2022/09/14 10:34:28;;;;;;;7.30;2.62;;;;;;;23.11;67.21;99474.77;3494003;82;98788;-87
2022/09/14 10:39:41;;;;;;;5.25;1.70;;;;;;;23.23;65.73;99470.16;3496686;81;98762;-88
2022/09/14 10:45:08;;;;;;;8.00;1.50;;;;;;;23.17;66.69;99457.42;3510849;80;98801;-86
2022/09/14 10:50:39;;;;;;;5.87;1.60;;;;;;;23.13;66.29;99452.63;3549325;80;98858;-86
2022/09/14 10:56:09;;;;;;;7.15;1.77;;;;;;;23.31;67.19;99446.03;3523063;82;98665;-87
2022/09/14 11:01:33;;;;;;;6.85;1.57;;;;;;;23.21;65.72;99453.03;3564779;78;98774;-87
2022/09/14 11:07:02;;;;;;;6.45;1.60;;;;;;;23.22;64.59;99448.97;3574249;80;98731;-85
2022/09/14 11:12:36;;;;;;;8.08;2.27;;;;;;;23.34;64.52;99441.64;3558203;79;99040;-87
2022/09/14 11:18:08;;;;;;;6.30;1.70;;;;;;;23.42;62.85;99434.35;3544611;81;98874;-83
2022/09/14 11:23:26;;;;;;;5.55;1.82;;;;;;;23.45;62.52;99431.98;3583011;78;98913;-86
2022/09/14 11:28:35;;;;;;;5.75;1.60;;;;;;;23.21;60.17;99436.95;3544825;80;98932;-85
2022/09/14 11:34:09;;;;;;;6.25;1.67;;;;;;;22.99;60.79;99442.81;3589105;79;99265;-88
2022/09/14 11:39:29;;;;;;;6.75;1.90;;;;;;;23.06;63.05;99434.00;3553041;81;98624;-87
2022/09/14 11:44:43;;;;;;;6.12;1.50;;;;;;;23.00;63.08;99419.86;3580410;77;98659;-87
2022/09/14 11:50:22;;;;;;;5.93;1.60;;;;;;;23.06;63.43;99414.35;3576716;79;98508;-86
2022/09/14 11:55:23;;;;;;;10.48;1.75;;;;;;;22.98;62.72;99421.59;3580524;79;98609;-85
2022/09/14 12:01:03;;;;;;;8.18;2.22;;;;;;;22.81;62.06;99419.92;3564490;81;98963;-84
2022/09/14 12:06:26;;;;;;;8.70;1.80;;;;;;;22.49;60.59;99411.05;3563866;80;98742;-86
2022/09/14 12:11:32;;;;;;;7.70;1.95;;;;;;;22.15;61.16;99412.26;3568025;80;98740;-86
2022/09/14 12:16:33;;;;;;;11.33;2.70;;;;;;;22.03;61.76;99422.48;3575257;79;98691;-85
2022/09/14 12:21:34;;;;;;;10.03;1.83;;;;;;;21.94;62.81;99418.34;3577326;79;99024;-85
2022/09/14 12:26:35;;;;;;;6.95;1.80;;;;;;;22.02;64.15;99427.16;3506396;81;98909;-84
2022/09/14 12:31:56;;;;;;;5.23;1.83;;;;;;;21.75;61.59;99434.34;3569530;78;98815;-84
2022/09/14 12:37:02;;;;;;;7.30;2.47;;;;;;;21.60;62.23;99425.06;3584380;77;98680;-85
2022/09/14 12:42:11;;;;;;;8.48;1.60;;;;;;;21.58;62.83;99420.58;3560142;80;98880;-84
2022/09/14 12:47:30;;;;;;;14.15;2.17;;;;;;;21.46;62.33;99411.75;3580838;80;98784;-86
2022/09/14 12:52:51;;;;;;;8.50;1.95;;;;;;;21.37;62.45;99403.42;3559346;81;98907;-86
2022/09/14 12:58:14;;;;;;;7.60;1.92;;;;;;;21.37;62.45;99403.42;3577427;80;98796;-86
2022/09/14 13:03:48;;;;;;;5.20;1.55;;;;;;;21.35;63.01;99405.29;3573448;80;98926;-82
2022/09/14 13:08:56;;;;;;;7.92;1.50;;;;;;;21.27;62.98;99393.52;3580827;79;99003;-85
2022/09/14 13:13:59;;;;;;;10.05;1.65;;;;;;;21.24;63.22;99391.65;3552273;81;98865;-86
2022/09/14 13:19:03;;;;;;;5.85;1.60;;;;;;;21.11;62.61;99390.48;3622198;79;99065;-85
2022/09/14 13:24:19;;;;;;;8.33;1.70;;;;;;;21.11;63.42;99386.91;3629672;79;99236;-85
2022/09/14 13:29:20;;;;;;;6.17;1.75;;;;;;;21.05;63.00;99386.78;3624548;79;98788;-85
2022/09/14 13:34:34;;;;;;;5.05;1.42;;;;;;;20.92;63.56;99377.80;3533269;80;98769;-88
2022/09/14 13:39:38;;;;;;;7.53;1.60;;;;;;;20.95;64.75;99373.28;3558563;81;99088;-86
2022/09/14 13:44:45;;;;;;;6.70;1.60;;;;;;;20.96;64.56;99365.83;3530032;82;98862;-85
2022/09/14 13:49:49;;;;;;;7.37;2.20;;;;;;;20.90;63.88;99359.94;3624088;79;103580;-87
2022/09/14 13:54:54;;;;;;;7.67;1.47;;;;;;;20.83;63.57;99356.06;3531007;80;98693;-86
2022/09/14 14:00:13;;;;;;;8.40;2.90;;;;;;;20.79;63.24;99354.84;3557058;81;98679;-84
2022/09/14 14:05:33;;;;;;;9.00;1.80;;;;;;;20.71;63.02;99350.05;3650668;79;98673;-85
2022/09/14 14:10:42;;;;;;;5.20;1.37;;;;;;;20.66;63.40;99345.85;3652770;77;98761;-85
2022/09/14 14:15:44;;;;;;;8.47;2.00;;;;;;;20.60;63.28;99336.55;3550434;80;98802;-87
2022/09/14 14:20:45;;;;;;;6.90;1.70;;;;;;;20.58;63.19;99342.46;3606606;80;98775;-87
2022/09/14 14:25:53;;;;;;;6.63;1.70;;;;;;;20.45;64.00;99338.48;3592324;79;98628;-86
2022/09/14 14:30:56;;;;;;;7.08;2.00;;;;;;;20.47;65.23;99326.81;3540745;80;98749;-87
2022/09/14 14:35:58;;;;;;;9.73;2.02;;;;;;;20.47;64.62;99317.81;3560050;80;98611;-87
2022/09/14 14:41:00;;;;;;;6.17;2.08;;;;;;;20.44;65.45;99317.34;3605490;77;98587;-86
2022/09/14 14:46:02;;;;;;;7.70;1.92;;;;;;;20.44;66.02;99311.75;3584186;80;99201;-86
2022/09/14 14:51:04;;;;;;;4.60;1.32;;;;;;;20.41;65.19;99314.72;3518643;81;99373;-87
2022/09/14 14:56:05;;;;;;;7.55;1.80;;;;;;;20.36;65.84;99316.75;3574530;80;98644;-86
2022/09/14 15:01:07;;;;;;;6.70;1.60;;;;;;;20.29;65.78;99315.68;3646446;77;98659;-86
2022/09/14 15:06:15;;;;;;;8.53;1.87;;;;;;;20.23;66.17;99328.73;3585789;80;98667;-87
2022/09/14 15:11:17;;;;;;;5.53;1.80;;;;;;;20.13;66.10;99320.99;3558752;80;98530;-87
2022/09/14 15:16:18;;;;;;;6.20;2.02;;;;;;;20.01;66.45;99324.68;3595139;80;98633;-87
2022/09/14 15:21:19;;;;;;;6.93;1.97;;;;;;;19.96;66.33;99300.80;3594079;80;98658;-86
2022/09/14 15:26:20;;;;;;;10.03;2.85;;;;;;;19.84;66.01;99296.92;3609660;79;98641;-87
2022/09/14 15:31:21;;;;;;;6.35;1.82;;;;;;;19.82;66.69;99292.44;3599953;80;98954;-87
2022/09/14 15:36:42;;;;;;;8.63;2.37;;;;;;;19.78;67.42;99306.41;3600015;79;98948;-88
2022/09/14 15:41:43;;;;;;;6.30;1.57;;;;;;;19.74;67.20;99301.59;3598719;79;98783;-87
2022/09/14 15:46:47;;;;;;;5.57;2.07;;;;;;;19.58;67.85;99298.50;3598102;78;98750;-87
2022/09/14 15:51:50;;;;;;;9.10;2.60;;;;;;;19.52;67.86;99296.78;3596377;79;98763;-87
2022/09/14 15:56:54;;;;;;;5.57;1.90;;;;;;;19.50;68.20;99309.03;3595073;80;98704;-87
2022/09/14 16:01:55;;;;;;;6.75;1.98;;;;;;;19.40;68.56;99307.47;3579439;79;98880;-87
2022/09/14 16:06:59;;;;;;;7.15;2.00;;;;;;;19.31;68.83;99299.86;3521943;79;99011;-86
2022/09/14 16:11:59;;;;;;;7.80;2.00;;;;;;;19.31;69.43;99304.05;3545290;78;98742;-86
2022/09/14 16:17:00;;;;;;;12.43;2.25;;;;;;;19.20;68.96;99300.91;3547439;79;98849;-86
2022/09/14 16:22:02;;;;;;;9.45;2.77;;;;;;;19.11;69.33;99294.50;3556037;79;98864;-87
2022/09/14 16:27:03;;;;;;;7.28;2.40;;;;;;;19.02;69.82;99291.08;3567016;78;98833;-88
2022/09/14 16:32:04;;;;;;;14.30;3.37;;;;;;;18.93;69.23;99299.44;3618376;79;98727;-86
2022/09/14 16:37:05;;;;;;;8.63;2.47;;;;;;;18.83;70.03;99295.06;3608038;79;98995;-86
2022/09/14 16:42:06;;;;;;;9.45;2.55;;;;;;;18.70;70.01;99299.19;3613833;79;98359;-86
2022/09/14 16:47:07;;;;;;;12.20;2.97;;;;;;;18.57;70.66;99294.31;3596616;79;98636;-87
2022/09/14 16:52:08;;;;;;;8.73;2.40;;;;;;;18.47;70.60;99288.56;3607663;80;98710;-87
2022/09/14 16:57:09;;;;;;;7.07;2.17;;;;;;;18.33;71.50;99290.49;3543595;79;98678;-87
2022/09/14 17:02:12;;;;;;;7.67;2.35;;;;;;;18.21;72.16;99296.90;3560068;79;98794;-87
2022/09/14 17:07:13;;;;;;;8.17;2.53;;;;;;;18.11;72.53;99293.89;3557619;79;98826;-86
2022/09/14 17:12:14;;;;;;;10.43;3.10;;;;;;;17.97;73.04;99300.77;3563588;79;98757;-87
2022/09/14 17:17:17;;;;;;;9.47;2.80;;;;;;;17.85;73.59;99304.39;3555466;80;98817;-88
2022/09/14 17:22:18;;;;;;;10.78;2.87;;;;;;;17.74;73.98;99305.39;3523550;81;98673;-87
2022/09/14 17:27:19;;;;;;;6.95;2.40;;;;;;;17.64;74.53;99312.10;3529891;81;98885;-86
2022/09/14 17:32:20;;;;;;;6.97;2.20;;;;;;;17.55;74.94;99315.42;3557618;80;99417;-86
2022/09/14 17:37:22;;;;;;;6.80;3.00;;;;;;;17.46;75.23;99311.95;3563251;79;98728;-86
2022/09/14 17:42:23;;;;;;;10.67;3.93;;;;;;;17.37;75.71;99306.26;3559917;80;98901;-86
2022/09/14 17:47:25;;;;;;;8.63;3.30;;;;;;;17.30;76.08;99309.29;3506001;82;99051;-86
2022/09/14 17:52:26;;;;;;;10.18;3.58;;;;;;;17.20;76.61;99303.47;3518845;82;98573;-87
2022/09/14 17:57:27;;;;;;;10.97;4.07;;;;;;;17.11;77.08;99300.59;3558980;80;98731;-86
2022/09/14 18:02:28;;;;;;;10.53;3.30;;;;;;;17.02;77.47;99292.17;3496694;82;98903;-87
2022/09/14 18:07:29;;;;;;;8.28;3.33;;;;;;;16.94;77.59;99303.34;3501377;81;98932;-86
2022/09/14 18:12:35;;;;;;;6.85;3.15;;;;;;;16.80;77.94;99287.73;3504090;81;98956;-86
2022/09/14 18:17:36;;;;;;;13.77;4.77;;;;;;;16.79;78.18;99290.36;3505715;82;101271;-86
2022/09/14 18:22:38;;;;;;;11.60;4.03;;;;;;;16.72;78.60;99289.97;3513032;82;99075;-87
2022/09/14 18:27:39;;;;;;;11.73;4.45;;;;;;;16.66;78.86;99286.19;3553808;80;99034;-87
2022/09/14 18:32:40;;;;;;;10.20;3.40;;;;;;;16.59;79.50;99278.09;3498632;81;99320;-87
2022/09/14 18:37:41;;;;;;;11.00;3.50;;;;;;;16.54;79.96;99280.62;3524636;81;99343;-87
2022/09/14 18:42:42;;;;;;;8.10;2.90;;;;;;;16.49;80.21;99276.41;3518798;82;98855;-87
2022/09/14 18:47:43;;;;;;;10.80;3.53;;;;;;;16.44;80.57;99280.34;3518844;81;105195;-87
2022/09/14 18:52:44;;;;;;;11.48;4.35;;;;;;;16.37;80.58;99268.04;3519021;80;99043;-88
2022/09/14 18:57:46;;;;;;;13.17;6.53;;;;;;;16.32;81.15;99265.22;3554132;80;98923;-87
2022/09/14 19:02:54;;;;;;;6.90;3.70;;;;;;;16.28;81.43;99255.42;3559053;79;99227;-87
2022/09/14 19:07:55;;;;;;;11.30;4.10;;;;;;;16.24;81.85;99254.77;3605271;78;98747;-87
2022/09/14 19:12:56;;;;;;;12.55;4.90;;;;;;;16.18;82.04;99260.08;3576449;80;99199;-87
2022/09/14 19:17:57;;;;;;;18.37;5.73;;;;;;;16.16;82.38;99258.37;3597787;80;98911;-87
2022/09/14 19:22:58;;;;;;;14.80;6.10;;;;;;;16.11;82.46;99259.52;3600727;78;98906;-86
2022/09/14 19:27:59;;;;;;;12.23;5.08;;;;;;;16.08;82.84;99245.14;3538807;80;98848;-87
2022/09/14 19:33:00;;;;;;;15.95;5.45;;;;;;;16.03;83.06;99253.39;3538109;81;98928;-87
2022/09/14 19:38:01;;;;;;;13.88;5.40;;;;;;;15.99;83.27;99246.40;3540803;80;98827;-87
2022/09/14 19:43:02;;;;;;;11.85;5.08;;;;;;;15.95;83.41;99245.12;3571900;80;99149;-87
2022/09/14 19:48:03;;;;;;;13.03;4.80;;;;;;;15.91;83.65;99248.59;3587875;79;98651;-88
2022/09/14 19:53:04;;;;;;;12.33;4.83;;;;;;;15.87;83.97;99247.16;3633929;79;98976;-87
2022/09/14 19:58:05;;;;;;;14.63;4.60;;;;;;;15.85;84.31;99246.20;3637003;79;99106;-88
2022/09/14 20:03:06;;;;;;;12.20;4.75;;;;;;;15.80;84.28;99250.91;3639978;78;98800;-87
2022/09/14 20:08:07;;;;;;;12.20;4.15;;;;;;;15.76;84.30;99246.06;3633853;79;98842;-87
2022/09/14 20:13:08;;;;;;;12.25;4.42;;;;;;;15.72;84.18;99248.77;3582463;77;98915;-86
2022/09/14 20:18:09;;;;;;;13.85;5.20;;;;;;;15.68;84.69;99241.95;3564028;79;98989;-85
2022/09/14 20:23:10;;;;;;;10.60;5.07;;;;;;;15.64;84.63;99238.48;3646165;79;98863;-88
2022/09/14 20:28:11;;;;;;;12.30;5.90;;;;;;;15.60;85.24;99243.34;3645843;78;99027;-87
2022/09/14 20:33:13;;;;;;;12.73;5.40;;;;;;;15.58;85.44;99236.08;3651233;78;98848;-86
2022/09/14 20:38:14;;;;;;;14.23;7.10;;;;;;;15.55;85.72;99239.75;3657459;79;98721;-86
2022/09/14 20:43:15;;;;;;;17.10;5.93;;;;;;;15.53;85.69;99218.59;3647653;77;98813;-86
2022/09/14 20:48:16;;;;;;;16.02;5.90;;;;;;;15.50;85.91;99236.72;3656493;79;98956;-87
2022/09/14 20:53:17;;;;;;;14.73;5.22;;;;;;;15.46;86.03;99229.89;3660366;78;98795;-87
2022/09/14 20:58:18;;;;;;;10.60;4.37;;;;;;;15.44;86.25;99235.70;3655236;79;98963;-87
2022/09/14 21:03:19;;;;;;;13.07;5.50;;;;;;;15.39;86.18;99236.23;3656210;79;99028;-87
2022/09/14 21:08:20;;;;;;;13.30;5.42;;;;;;;15.33;86.47;99230.46;3649985;79;98906;-87
2022/09/14 21:13:20;;;;;;;13.90;6.20;;;;;;;15.31;86.91;99236.23;3663867;79;98845;-86
2022/09/14 21:18:21;;;;;;;13.10;5.37;;;;;;;15.26;86.69;99224.30;3587699;80;98678;-85
2022/09/14 21:23:22;;;;;;;12.97;5.67;;;;;;;15.23;87.22;99220.41;3610078;78;98945;-85
2022/09/14 21:28:23;;;;;;;13.53;5.40;;;;;;;15.21;87.13;99216.52;3605111;78;99013;-86
2022/09/14 21:33:24;;;;;;;12.20;5.70;;;;;;;15.18;87.15;99218.16;3539140;81;99035;-85
2022/09/14 21:38:25;;;;;;;11.83;5.17;;;;;;;15.04;87.62;99203.28;3652858;79;99244;-86
2022/09/14 21:43:26;;;;;;;13.22;5.67;;;;;;;15.13;87.74;99210.38;3605169;79;98867;-85
2022/09/14 21:48:27;;;;;;;11.23;5.70;;;;;;;15.12;88.01;99213.58;3605923;78;98865;-86
2022/09/14 21:53:28;;;;;;;11.67;5.17;;;;;;;15.10;87.78;99212.62;3591717;79;98997;-86
2022/09/14 21:58:29;;;;;;;13.30;5.45;;;;;;;15.07;88.02;99210.73;3607875;79;98784;-85
2022/09/14 22:03:30;;;;;;;15.38;5.75;;;;;;;15.05;88.14;99202.06;3618579;78;98903;-86
2022/09/14 22:08:34;;;;;;;12.83;5.73;;;;;;;15.05;88.14;99197.15;3519522;81;98910;-86
2022/09/14 22:13:35;;;;;;;13.30;5.05;;;;;;;15.02;88.51;99200.19;3559719;79;99193;-86
2022/09/14 22:18:38;;;;;;;14.70;5.37;;;;;;;15.02;88.70;99202.95;3562020;81;98882;-86
2022/09/14 22:23:39;;;;;;;12.77;5.17;;;;;;;15.01;88.79;99200.02;3559070;79;98957;-86
2022/09/14 22:28:40;;;;;;;11.03;5.43;;;;;;;15.01;88.89;99195.86;3495861;81;99017;-86
2022/09/14 22:33:41;;;;;;;13.37;4.90;;;;;;;15.00;89.11;99188.73;3490201;82;99168;-86
2022/09/14 22:38:42;;;;;;;14.65;5.95;;;;;;;14.98;89.12;99188.41;3554361;78;98794;-86
2022/09/14 22:43:44;;;;;;;11.80;4.90;;;;;;;14.97;89.19;99196.55;3561780;80;109847;-86
2022/09/14 22:48:46;;;;;;;12.70;4.58;;;;;;;14.94;89.11;99189.09;3514963;82;99112;-87
2022/09/14 22:53:48;;;;;;;12.37;4.73;;;;;;;14.94;89.46;99200.80;3505451;82;98902;-86
2022/09/14 22:58:50;;;;;;;12.37;5.00;;;;;;;14.90;89.25;99182.89;3510173;81;98961;-86
2022/09/14 23:04:03;;;;;;;12.13;4.72;;;;;;;14.87;89.56;99177.45;3555733;80;99022;-85
2022/09/14 23:09:07;;;;;;;11.08;4.12;;;;;;;14.83;89.60;99180.28;3533936;81;99066;-86
2022/09/14 23:14:08;;;;;;;12.13;4.83;;;;;;;14.80;89.65;99188.09;3660775;79;98925;-87
2022/09/14 23:19:14;;;;;;;10.40;4.77;;;;;;;14.77;89.69;99174.34;3659609;79;98862;-86
2022/09/14 23:24:15;;;;;;;10.35;4.10;;;;;;;14.76;89.83;99165.84;3662841;79;98634;-87
2022/09/14 23:29:16;;;;;;;9.90;4.23;;;;;;;14.75;90.12;99172.59;3589607;79;98966;-87
2022/09/14 23:34:17;;;;;;;11.03;4.20;;;;;;;14.73;90.13;99164.75;3589506;79;98723;-86
2022/09/14 23:39:18;;;;;;;12.80;4.08;;;;;;;14.72;90.33;99163.16;3661768;79;98793;-87
2022/09/14 23:44:19;;;;;;;12.93;4.30;;;;;;;14.69;90.10;99152.97;3673709;79;98808;-86